Friday, November 17, 2017, 2:35 PM EST
Back to Local

KFIG, Clearfield-lawrence Airport

Location: Clearfield, PA, United States Lat: 41.05
Local Time: 2:35 PM EST (19:35 GMT) Lon: -78.417
Time Zone: US/Eastern Elev: 1515 ft

Show me the last for .
Show Decoded

2017-11-17 13:54 METAR KFIG 171854Z AUTO 24005KT 10SM CLR 04/M03 A3015 RMK AO2 SLP223 T00441033 =
2017-11-17 12:54 METAR KFIG 171754Z AUTO 27005KT 10SM CLR 04/M04 A3017 RMK AO2 SLP229 T00391039
                 10044 20000 58018 =
2017-11-17 12:01 METAR KFIG 171701Z AUTO 27007KT 10SM SCT026 04/M03 A3021 RMK AO2 T00391033 =
2017-11-17 11:54 METAR KFIG 171654Z AUTO VRB05KT 10SM BKN026 04/M03 A3021 RMK AO2 SLP243
                 T00391033 =
2017-11-17 10:54 METAR KFIG 171554Z AUTO 29010KT 10SM BKN024 03/M03 A3022 RMK AO2 SLP248
                 T00281033 =
2017-11-17 09:54 METAR KFIG 171454Z AUTO 28009KT 10SM OVC022 02/M04 A3022 RMK AO2 SLP249
                 T00171039 51016 =
2017-11-17 08:54 METAR KFIG 171354Z AUTO 32007KT 10SM OVC022 01/M03 A3022 RMK AO2 SLP247
                 T00111033 =
2017-11-17 07:54 METAR KFIG 171254Z AUTO 31014G19KT 10SM OVC022 00/M04 A3019 RMK AO2 SLP238
                 T00001039 =
2017-11-17 06:54 METAR KFIG 171154Z AUTO 29009KT 10SM OVC022 01/M03 A3018 RMK AO2 SLP232 60000
                 70005 T00061033 10017 20006 53011 =
2017-11-17 05:54 METAR KFIG 171054Z AUTO 32007KT 10SM OVC022 01/M03 A3015 RMK AO2 SLP225
                 T00061033 =
2017-11-17 04:54 METAR KFIG 170954Z AUTO 32009KT 10SM OVC020 01/M03 A3015 RMK AO2 SLP225
                 T00061028 =
2017-11-17 03:54 METAR KFIG 170854Z AUTO 31015G22KT 10SM OVC021 01/M03 A3014 RMK AO2 SLP221 60000
                 T00111033 51014 =
2017-11-17 02:54 METAR KFIG 170754Z AUTO 30009G15KT 10SM OVC023 01/M02 A3014 RMK AO2 SLP219
                 T00111022 =
2017-11-17 01:54 METAR KFIG 170654Z AUTO 30010KT 10SM OVC026 02/M02 A3012 RMK AO2 SNE04 SLP212
                 P0000 T00171022 =
2017-11-17 00:54 METAR KFIG 170554Z AUTO 29007KT 8SM -SN BKN016 OVC022 02/M01 A3010 RMK AO2 SNB54
                 SLP204 P0000 60001 T00171006 10028 20017 51010 =
2017-11-16 23:54 METAR KFIG 170454Z AUTO 26009KT 220V300 10SM BKN022 OVC036 02/M01 A3009 RMK AO2
                 SLP201 T00171011 400780017 =
2017-11-16 22:54 METAR KFIG 170354Z AUTO VRB05G14KT 10SM SCT015 BKN020 OVC038 02/00 A3008 RMK AO2
                 UPB14E18B42E46RAB18E28SNB30E42 SLP197 P0000 T00220000 =
2017-11-16 21:54 METAR KFIG 170254Z AUTO 21009G18KT 170V240 10SM BKN017 BKN025 OVC037 02/01 A3007
                 RMK AO2 RAB0156E42UPB27E28 SLP192 P0001 60001 T00170011 51012 =
2017-11-16 21:43 METAR KFIG 170243Z AUTO 22007KT 10SM BKN017 OVC037 02/01 A3007 RMK AO2
                 RAB0156E42UPB27E28 P0001 T00170006 =
2017-11-16 21:18 METAR KFIG 170218Z AUTO 24005KT 10SM -RA BKN014 OVC019 02/01 A3006 RMK AO2
                 RAB0156 P0000 T00220011 =
2017-11-16 21:10 METAR KFIG 170210Z AUTO 26007KT 10SM -RA OVC016 02/01 A3006 RMK AO2 RAB0156
                 P0000 T00220011 =
2017-11-16 20:54 METAR KFIG 170154Z AUTO 24010KT 10SM OVC014 03/01 A3006 RMK AO2 SLP188 T00280006
                 =
2017-11-16 20:19 METAR KFIG 170119Z AUTO 25007G19KT 220V310 10SM OVC014 03/01 A3005 RMK AO2
                 T00280006 =
2017-11-16 19:54 METAR KFIG 170054Z AUTO 26007KT 10SM OVC016 03/01 A3005 RMK AO2 RAE20 SLP186
                 P0000 T00280006 =
2017-11-16 19:13 METAR KFIG 170013Z AUTO 23008KT 10SM -RA BKN016 OVC023 02/01 A3004 RMK AO2 P0000
                 T00220011 =
2017-11-16 19:04 METAR KFIG 170004Z AUTO 25008KT 9SM -RA OVC014 02/01 A3003 RMK AO2 P0000
                 T00220006 =
2017-11-16 18:54 METAR KFIG 162354Z AUTO 26007KT 10SM -RA OVC016 02/01 A3003 RMK AO2 RAB26 SLP179
                 P0000 60001 T00220011 10044 20022 53019 =
2017-11-16 17:54 METAR KFIG 162254Z AUTO 25009G17KT 10SM OVC017 03/01 A3001 RMK AO2 SLP172
                 T00280006 =
2017-11-16 16:54 METAR KFIG 162154Z AUTO 24011G18KT 10SM OVC016 03/01 A2999 RMK AO2 SLP165
                 T00280011 =
2017-11-16 15:54 METAR KFIG 162054Z AUTO 24009G16KT 10SM BKN016 OVC021 03/01 A2997 RMK AO2
                 RAB01E26 SLP159 P0000 60001 T00280006 53021 =
2017-11-16 14:54 METAR KFIG 161954Z AUTO 24012G20KT 10SM BKN020 OVC026 03/01 A2994 RMK AO2
                 RAE1859B42E54 SLP150 P0000 T00330006 =

Support USWX by starting your Amazon purchase here.